Time;durP1;ratioP1;P1;durP2;ratioP2;P2;SDS_P1;SDS_P2;PMS_P1;PMS_P2;Temp;Humidity;BMP_temperature;BMP_pressure;BME280_temperature;BME280_humidity;BME280_pressure;Samples;Min_cycle;Max_cycle;Signal;HPM_P1;HPM_P2
2023/05/16 00:00:35;;;;;;;27.80;23.70;;;;;;;40.01;37.42;101139.69;5034452;28;20431;-84
2023/05/16 00:03:04;;;;;;;26.47;22.30;;;;;;;39.99;37.57;101138.44;5034303;28;20204;-85
2023/05/16 00:05:30;;;;;;;30.40;22.73;;;;;;;39.97;37.82;101135.22;5034367;28;20439;-85
2023/05/16 00:07:56;;;;;;;30.33;23.10;;;;;;;39.94;37.36;101127.69;5033709;28;20577;-84
2023/05/16 00:10:22;;;;;;;25.07;21.00;;;;;;;39.95;37.39;101132.81;5034720;28;20514;-83
2023/05/16 00:12:50;;;;;;;31.60;19.80;;;;;;;39.78;37.21;101134.66;5034417;28;20848;-83
2023/05/16 00:15:19;;;;;;;29.60;19.47;;;;;;;39.91;37.65;101125.63;5034170;28;20307;-83
2023/05/16 00:17:46;;;;;;;25.07;19.53;;;;;;;39.61;37.39;101116.38;5034742;28;20430;-84
2023/05/16 00:20:17;;;;;;;25.03;18.27;;;;;;;39.84;37.46;101117.09;5033976;28;20423;-83
2023/05/16 00:22:45;;;;;;;22.63;19.37;;;;;;;39.68;37.35;101112.09;5034393;28;20447;-84
2023/05/16 00:25:11;;;;;;;22.43;18.80;;;;;;;39.78;37.17;101112.91;5033944;28;20519;-83
2023/05/16 00:27:37;;;;;;;32.23;18.77;;;;;;;39.77;37.91;101112.13;5034258;28;21025;-85
2023/05/16 00:30:03;;;;;;;27.43;20.57;;;;;;;39.79;37.21;101111.84;5033412;28;20471;-85
2023/05/16 00:32:29;;;;;;;29.67;18.93;;;;;;;39.79;37.68;101119.97;5034007;28;20411;-83
2023/05/16 00:34:55;;;;;;;20.43;18.40;;;;;;;39.76;37.55;101116.75;5019909;28;20810;-84
2023/05/16 00:37:21;;;;;;;22.67;19.40;;;;;;;39.70;37.42;101103.63;5035355;28;20542;-83
2023/05/16 00:39:47;;;;;;;25.07;19.50;;;;;;;39.56;37.64;101087.41;5033636;28;20427;-83
2023/05/16 00:42:13;;;;;;;28.80;20.07;;;;;;;39.66;37.44;101108.91;5034074;28;20424;-85
2023/05/16 00:44:40;;;;;;;22.40;18.17;;;;;;;39.57;37.61;101086.28;5033703;28;20423;-85
2023/05/16 00:47:07;;;;;;;22.57;19.00;;;;;;;39.70;37.71;101096.28;5033743;28;20407;-84
2023/05/16 00:49:33;;;;;;;27.00;21.33;;;;;;;39.74;37.66;101088.31;5033369;28;20423;-84
2023/05/16 00:51:59;;;;;;;25.87;22.53;;;;;;;39.88;37.51;101090.94;5033777;28;20458;-84
2023/05/16 00:54:28;;;;;;;33.40;23.40;;;;;;;39.82;37.70;101095.69;5032817;28;20558;-84
2023/05/16 00:56:55;;;;;;;29.03;22.57;;;;;;;39.84;37.51;101095.38;5033483;28;20459;-83
2023/05/16 00:59:22;;;;;;;29.20;21.33;;;;;;;39.59;38.01;101080.53;5033333;28;20455;-83
2023/05/16 01:01:49;;;;;;;24.40;20.03;;;;;;;39.63;37.99;101090.50;5033487;28;20501;-83
2023/05/16 01:04:16;;;;;;;24.00;19.73;;;;;;;39.62;37.73;101079.97;5033302;28;20851;-83
2023/05/16 01:06:43;;;;;;;24.60;20.60;;;;;;;39.67;37.40;101071.69;5033488;28;20928;-83
2023/05/16 01:09:11;;;;;;;24.47;18.93;;;;;;;39.58;37.67;101066.16;5033059;28;20503;-83
2023/05/16 01:12:08;;;;;;;24.77;19.87;;;;;;;39.67;37.49;101064.34;5034842;28;20514;-83
2023/05/16 01:14:42;;;;;;;31.63;20.43;;;;;;;39.56;37.74;101064.91;5035766;28;20420;-83
2023/05/16 01:17:46;;;;;;;27.20;22.10;;;;;;;39.55;37.84;101055.94;5029748;28;21029;-82
2023/05/16 01:20:31;;;;;;;26.40;22.53;;;;;;;39.68;38.05;101044.22;5032798;28;20534;-83
2023/05/16 01:23:12;;;;;;;27.57;22.20;;;;;;;39.67;37.42;101050.75;5033394;28;20431;-84
2023/05/16 01:25:44;;;;;;;27.97;22.87;;;;;;;39.58;38.10;101043.66;5031551;28;20573;-84
2023/05/16 01:28:15;;;;;;;30.93;24.03;;;;;;;39.61;37.92;101043.06;5027398;28;20422;-84
2023/05/16 01:30:41;;;;;;;25.50;22.97;;;;;;;39.49;38.00;101035.50;5017811;28;20492;-83
2023/05/16 01:33:07;;;;;;;29.97;23.93;;;;;;;39.41;38.01;101034.34;5027140;28;20428;-84
2023/05/16 01:35:41;;;;;;;28.70;23.23;;;;;;;39.42;37.95;101029.72;5020534;28;20454;-83
2023/05/16 01:38:25;;;;;;;27.17;22.90;;;;;;;39.46;37.78;101033.38;5032649;28;20484;-84
2023/05/16 01:41:00;;;;;;;25.40;20.67;;;;;;;39.56;37.80;101030.41;5034266;28;20416;-83
2023/05/16 01:43:59;;;;;;;22.53;18.77;;;;;;;39.48;37.82;101017.59;5032316;28;20427;-84
2023/05/16 01:46:30;;;;;;;24.07;17.13;;;;;;;39.42;37.35;101013.44;5008916;28;20958;-84
2023/05/16 01:49:21;;;;;;;21.13;19.83;;;;;;;39.31;37.42;101012.09;5032657;28;20510;-83
2023/05/16 01:51:59;;;;;;;22.60;19.80;;;;;;;39.57;37.32;101009.47;5032573;28;20515;-83
2023/05/16 01:54:30;;;;;;;24.80;17.47;;;;;;;39.61;37.32;101005.84;5032098;28;20519;-84
2023/05/16 01:56:59;;;;;;;21.90;18.40;;;;;;;39.59;37.55;101002.59;5032374;28;20459;-84
2023/05/16 01:59:26;;;;;;;21.27;17.03;;;;;;;39.66;36.95;100991.34;5031713;28;20513;-84
2023/05/16 02:01:58;;;;;;;25.33;18.60;;;;;;;39.61;36.94;100997.72;5032371;28;20474;-83
2023/05/16 02:04:24;;;;;;;20.13;16.10;;;;;;;39.73;36.89;100992.47;5033257;28;20486;-84
2023/05/16 02:06:51;;;;;;;21.43;17.27;;;;;;;39.75;36.81;100981.28;5031558;28;20419;-82
2023/05/16 02:09:17;;;;;;;22.90;19.20;;;;;;;39.73;37.12;100969.97;5031680;28;20958;-83
2023/05/16 02:11:42;;;;;;;22.83;17.03;;;;;;;39.54;37.63;100956.63;5032159;28;20415;-84
2023/05/16 02:14:08;;;;;;;22.13;19.13;;;;;;;39.52;37.65;100952.59;5031796;28;20875;-84
2023/05/16 02:16:35;;;;;;;21.17;17.90;;;;;;;39.34;38.17;100957.19;5031830;28;21026;-83
2023/05/16 02:19:01;;;;;;;20.40;18.00;;;;;;;39.36;37.87;100953.06;5032026;28;20451;-84
2023/05/16 02:21:27;;;;;;;19.63;16.50;;;;;;;39.41;37.69;100952.91;5031944;28;20466;-83
2023/05/16 02:23:53;;;;;;;22.73;16.30;;;;;;;39.58;37.45;100960.28;5031797;28;20960;-84
2023/05/16 02:26:19;;;;;;;23.10;16.87;;;;;;;39.58;36.81;100968.44;5031765;28;20205;-83
2023/05/16 02:28:45;;;;;;;24.13;16.10;;;;;;;39.44;37.50;100960.41;5031503;28;20416;-84
2023/05/16 02:31:11;;;;;;;24.13;17.20;;;;;;;39.58;37.16;100971.16;5031709;28;20502;-84
2023/05/16 02:33:37;;;;;;;19.93;18.13;;;;;;;39.63;37.27;100965.59;5026278;28;20443;-83
2023/05/16 02:36:03;;;;;;;20.90;15.63;;;;;;;39.66;36.85;100977.78;5023496;28;21002;-84
2023/05/16 02:38:30;;;;;;;20.13;14.00;;;;;;;39.71;36.27;100975.69;5030808;28;20176;-84
2023/05/16 02:40:56;;;;;;;23.20;15.37;;;;;;;39.58;36.88;100971.16;5031476;28;20527;-83
2023/05/16 02:43:22;;;;;;;20.27;15.80;;;;;;;39.65;36.47;100971.50;5031483;28;20499;-83
2023/05/16 02:45:48;;;;;;;18.70;15.70;;;;;;;39.73;36.47;100969.97;5031064;28;20519;-83
2023/05/16 02:48:14;;;;;;;19.77;14.40;;;;;;;39.65;36.92;100971.50;5030679;28;20805;-85
2023/05/16 02:50:41;;;;;;;22.20;16.20;;;;;;;39.45;36.97;100974.78;5031460;28;20419;-85
2023/05/16 02:53:07;;;;;;;26.50;15.80;;;;;;;39.49;37.00;100970.34;5031150;28;20550;-84
2023/05/16 02:55:33;;;;;;;20.90;16.87;;;;;;;39.63;36.96;100970.25;5031454;28;20512;-83
2023/05/16 02:57:59;;;;;;;18.67;13.50;;;;;;;39.58;36.80;100964.91;5031054;28;20197;-84
2023/05/16 03:00:25;;;;;;;18.50;14.33;;;;;;;39.53;36.85;100962.34;5031138;28;20506;-83
2023/05/16 03:02:50;;;;;;;21.90;15.17;;;;;;;39.61;36.37;100956.19;5030934;28;20419;-84
2023/05/16 03:05:17;;;;;;;20.07;14.67;;;;;;;39.48;36.86;100961.41;5031062;28;20189;-85
2023/05/16 03:07:43;;;;;;;18.60;13.97;;;;;;;39.48;37.16;100960.59;5031028;28;20802;-85
2023/05/16 03:10:09;;;;;;;18.67;13.20;;;;;;;39.57;36.96;100964.13;5031133;28;20447;-84
2023/05/16 03:12:35;;;;;;;17.53;14.00;;;;;;;39.64;36.69;100960.97;5030994;28;20176;-85
2023/05/16 03:15:01;;;;;;;21.07;13.37;;;;;;;39.63;36.85;100962.88;5030886;28;20420;-85
2023/05/16 03:17:27;;;;;;;20.77;13.53;;;;;;;39.59;36.98;100959.16;5030455;28;20469;-85
2023/05/16 03:19:53;;;;;;;20.43;13.97;;;;;;;39.44;37.17;100960.41;5031090;28;20185;-83
2023/05/16 03:22:19;;;;;;;20.37;14.17;;;;;;;39.47;36.93;100965.22;5030259;28;20559;-83
2023/05/16 03:24:45;;;;;;;24.23;14.27;;;;;;;39.44;37.50;100968.56;5030804;28;20688;-82
2023/05/16 03:27:31;;;;;;;18.63;13.47;;;;;;;39.46;36.92;100951.94;5030172;28;20479;-83
2023/05/16 03:29:56;;;;;;;20.43;14.53;;;;;;;39.44;37.42;100954.97;5029686;28;20609;-83
2023/05/16 03:32:22;;;;;;;17.10;12.50;;;;;;;39.48;37.42;100955.97;5030052;28;20708;-83
2023/05/16 03:34:48;;;;;;;27.13;14.50;;;;;;;39.46;37.36;100965.53;4999891;28;20185;-83
2023/05/16 03:37:16;;;;;;;19.03;11.90;;;;;;;39.53;37.00;100965.06;5013799;28;20961;-83
2023/05/16 03:39:42;;;;;;;15.90;11.53;;;;;;;39.32;37.70;100959.41;5013166;28;21053;-83
2023/05/16 03:42:08;;;;;;;18.50;12.10;;;;;;;39.44;37.18;100963.13;5013424;28;20415;-84
2023/05/16 03:44:34;;;;;;;17.33;12.17;;;;;;;39.28;37.28;100969.28;5013186;28;20515;-83
2023/05/16 03:47:00;;;;;;;27.37;13.47;;;;;;;39.30;37.80;100981.44;5013379;28;20518;-85
2023/05/16 03:49:29;;;;;;;16.50;11.70;;;;;;;39.50;37.69;100982.78;5013116;28;20484;-85
2023/05/16 03:51:56;;;;;;;19.83;12.97;;;;;;;39.46;37.61;100988.03;5013318;28;20451;-85
2023/05/16 03:54:22;;;;;;;16.90;13.53;;;;;;;39.48;37.03;100995.88;5013065;28;20423;-84
2023/05/16 03:56:48;;;;;;;19.43;12.53;;;;;;;39.51;37.21;100992.53;5013187;28;20915;-83
2023/05/16 03:59:13;;;;;;;16.33;12.23;;;;;;;39.44;37.51;100998.41;5026628;28;20431;-83
2023/05/16 04:01:39;;;;;;;18.33;12.17;;;;;;;39.34;37.29;100993.25;5030752;28;20207;-84
2023/05/16 04:04:06;;;;;;;16.00;12.00;;;;;;;39.43;37.44;100991.38;5030497;28;20267;-84
2023/05/16 04:06:33;;;;;;;15.47;12.33;;;;;;;39.53;37.26;101005.78;5030610;28;20208;-84
2023/05/16 04:08:59;;;;;;;17.97;12.83;;;;;;;39.38;37.71;101002.38;5030405;28;20420;-84
2023/05/16 04:11:25;;;;;;;21.93;12.10;;;;;;;39.24;37.54;100977.25;5030567;28;20459;-84
2023/05/16 04:13:52;;;;;;;24.90;11.03;;;;;;;39.25;38.00;100997.84;5030321;28;20416;-83
2023/05/16 04:16:19;;;;;;;21.30;12.53;;;;;;;39.12;38.20;100996.00;5030501;28;20447;-83
2023/05/16 04:18:45;;;;;;;16.40;11.73;;;;;;;39.30;38.01;100999.66;5030285;28;20777;-83
2023/05/16 04:21:14;;;;;;;17.90;11.80;;;;;;;39.16;37.97;101002.44;5030244;28;20430;-83
2023/05/16 04:23:42;;;;;;;17.20;11.90;;;;;;;39.16;38.00;101002.44;5030358;28;20477;-84
2023/05/16 04:26:09;;;;;;;17.87;13.43;;;;;;;39.37;37.66;101000.78;5030574;28;20446;-84
2023/05/16 04:28:35;;;;;;;18.10;13.93;;;;;;;39.45;37.91;101008.16;5030962;28;20431;-83
2023/05/16 04:31:01;;;;;;;20.00;13.03;;;;;;;39.15;38.31;101009.72;5035410;28;20463;-84
2023/05/16 04:33:28;;;;;;;18.60;12.00;;;;;;;39.22;38.03;101017.47;5030305;28;20959;-84
2023/05/16 04:35:53;;;;;;;18.93;11.20;;;;;;;39.32;37.91;101017.19;5024349;28;20617;-83
2023/05/16 04:38:20;;;;;;;17.23;14.00;;;;;;;39.31;37.48;100987.66;5033822;28;20924;-83
2023/05/16 04:40:48;;;;;;;20.60;13.67;;;;;;;39.29;37.69;101009.69;5033849;28;20185;-83
2023/05/16 04:43:15;;;;;;;21.00;14.77;;;;;;;39.11;37.96;101014.19;5033733;28;20438;-84
2023/05/16 04:45:41;;;;;;;20.10;14.07;;;;;;;38.99;38.27;101005.03;5033698;28;20426;-84
2023/05/16 04:48:07;;;;;;;21.80;15.03;;;;;;;39.08;38.04;101003.97;5033485;28;20496;-84
2023/05/16 04:50:33;;;;;;;20.53;13.93;;;;;;;39.01;38.17;101009.03;5034774;28;20514;-84
2023/05/16 04:52:59;;;;;;;21.97;16.47;;;;;;;39.20;37.87;101015.06;5033322;28;20439;-84
2023/05/16 04:55:25;;;;;;;23.30;16.47;;;;;;;38.99;38.36;101005.84;5032911;28;20884;-85
2023/05/16 04:57:51;;;;;;;22.83;18.03;;;;;;;38.96;38.38;101015.38;5033319;28;20176;-85
2023/05/16 05:00:17;;;;;;;18.47;14.53;;;;;;;38.87;38.49;101028.09;5033357;28;20208;-84
2023/05/16 05:02:43;;;;;;;17.27;14.47;;;;;;;38.95;38.46;101021.91;5034255;28;20498;-83
2023/05/16 05:05:10;;;;;;;21.87;13.73;;;;;;;39.17;38.12;101044.75;5032888;28;20577;-83
2023/05/16 05:07:36;;;;;;;15.97;12.10;;;;;;;39.20;38.38;101052.25;5033192;28;20444;-83
2023/05/16 05:10:02;;;;;;;22.37;14.67;;;;;;;39.20;38.01;101052.25;5033086;28;20439;-84
2023/05/16 05:12:28;;;;;;;20.33;13.80;;;;;;;39.27;37.95;101046.38;5032669;28;20204;-84
2023/05/16 05:14:54;;;;;;;19.40;13.50;;;;;;;39.36;37.92;101053.47;5032384;28;20459;-83
2023/05/16 05:17:20;;;;;;;26.60;15.73;;;;;;;39.31;38.09;101053.59;5032785;28;20609;-83
2023/05/16 05:19:47;;;;;;;20.83;14.17;;;;;;;39.39;37.85;101052.03;5032971;28;20423;-83
2023/05/16 05:22:13;;;;;;;21.00;16.10;;;;;;;39.31;38.07;101056.31;5032776;28;20489;-83
2023/05/16 05:24:39;;;;;;;19.40;15.10;;;;;;;39.28;38.14;101048.78;5032956;28;20416;-83
2023/05/16 05:27:05;;;;;;;18.53;13.97;;;;;;;39.34;37.76;101044.03;5032908;28;20981;-84
2023/05/16 05:29:31;;;;;;;24.87;16.50;;;;;;;39.42;37.68;101052.22;5032737;28;20420;-83
2023/05/16 05:31:57;;;;;;;16.67;13.97;;;;;;;39.35;37.67;101064.63;5032398;28;20411;-85
2023/05/16 05:34:23;;;;;;;32.03;15.27;;;;;;;39.27;37.87;101054.53;5022878;28;20428;-86
2023/05/16 05:36:49;;;;;;;20.70;17.30;;;;;;;39.35;37.84;101076.28;5030726;28;20455;-85
2023/05/16 05:39:15;;;;;;;21.73;15.70;;;;;;;39.32;38.06;101081.53;5032616;28;20423;-85
2023/05/16 05:41:41;;;;;;;21.90;16.13;;;;;;;39.40;37.76;101097.06;5032721;28;20772;-83
2023/05/16 05:44:07;;;;;;;21.07;16.30;;;;;;;39.42;37.74;101087.50;5032719;28;21063;-83
2023/05/16 05:46:33;;;;;;;19.47;17.87;;;;;;;39.38;37.91;101088.44;5032499;28;20181;-83
2023/05/16 05:49:00;;;;;;;20.83;17.70;;;;;;;39.46;37.99;101101.25;5032573;28;20283;-82
2023/05/16 05:51:26;;;;;;;23.30;17.43;;;;;;;39.55;37.75;101107.53;5032329;28;20431;-81
2023/05/16 05:53:53;;;;;;;24.47;18.80;;;;;;;39.57;37.23;101109.94;5032565;28;20427;-81
2023/05/16 05:56:20;;;;;;;23.50;19.30;;;;;;;39.58;37.39;101104.19;5032119;28;20513;-83
2023/05/16 05:58:46;;;;;;;29.50;22.13;;;;;;;39.44;37.45;101115.13;5033824;28;20447;-83
2023/05/16 06:01:12;;;;;;;23.70;20.90;;;;;;;39.37;37.79;101098.50;5031869;28;20470;-83
2023/05/16 06:03:38;;;;;;;27.73;20.60;;;;;;;39.49;37.61;101128.59;5032477;28;20470;-82
2023/05/16 06:06:04;;;;;;;29.00;23.27;;;;;;;39.33;37.84;101127.34;5032083;28;20416;-82
2023/05/16 06:08:30;;;;;;;34.33;24.57;;;;;;;39.32;37.89;101128.47;5033351;28;20419;-81
2023/05/16 06:10:55;;;;;;;31.77;24.00;;;;;;;39.29;38.12;101129.09;5032084;28;20514;-82
2023/05/16 06:13:21;;;;;;;26.23;23.57;;;;;;;39.26;37.86;101137.84;5032102;28;20590;-83
2023/05/16 06:15:53;;;;;;;27.77;22.60;;;;;;;39.46;37.69;101150.09;5033327;28;20204;-83
2023/05/16 06:18:22;;;;;;;47.97;29.80;;;;;;;39.36;37.81;101134.91;5032063;28;20192;-83
2023/05/16 06:20:49;;;;;;;34.60;28.00;;;;;;;39.54;37.80;101154.00;5031901;28;20423;-84
2023/05/16 06:23:15;;;;;;;37.83;28.47;;;;;;;39.61;37.71;101157.91;5031951;28;20433;-85
2023/05/16 06:25:42;;;;;;;28.27;24.40;;;;;;;39.61;37.54;101138.09;5033053;28;20459;-82
2023/05/16 06:28:08;;;;;;;37.83;29.53;;;;;;;39.67;37.21;101147.72;5032150;28;20962;-84
2023/05/16 06:30:34;;;;;;;37.83;31.63;;;;;;;39.75;37.33;101158.63;5031656;28;20232;-83
2023/05/16 06:33:00;;;;;;;39.87;29.60;;;;;;;39.69;37.96;101162.56;5031887;28;20416;-85
2023/05/16 06:35:26;;;;;;;34.40;27.33;;;;;;;39.66;37.59;101176.78;5018717;28;20431;-84
2023/05/16 06:37:52;;;;;;;38.47;29.13;;;;;;;39.69;37.61;101176.16;5031531;28;20432;-84
2023/05/16 06:40:18;;;;;;;34.03;27.07;;;;;;;39.66;37.84;101176.00;5031075;28;20181;-85
2023/05/16 06:42:44;;;;;;;33.27;24.13;;;;;;;39.65;37.73;101177.88;5031613;28;20732;-84
2023/05/16 06:45:10;;;;;;;31.57;23.47;;;;;;;39.72;37.30;101172.81;5030624;28;20507;-82
2023/05/16 06:47:36;;;;;;;30.30;25.00;;;;;;;39.70;37.64;101179.66;5031570;28;20264;-81
2023/05/16 06:50:02;;;;;;;30.90;24.40;;;;;;;39.77;37.42;101190.88;5044489;28;20527;-82
2023/05/16 06:52:30;;;;;;;27.10;23.97;;;;;;;39.73;37.74;101206.22;5040817;28;20812;-81
2023/05/16 06:54:56;;;;;;;36.77;26.40;;;;;;;39.81;37.70;101207.38;5043548;28;20421;-82
2023/05/16 06:57:21;;;;;;;39.63;28.00;;;;;;;39.86;37.40;101208.03;5024142;28;20473;-81
2023/05/16 06:59:47;;;;;;;52.20;26.67;;;;;;;39.93;37.45;101208.41;5030900;28;20211;-82
2023/05/16 07:02:13;;;;;;;31.30;24.50;;;;;;;39.79;37.26;101202.25;5030733;28;20181;-81
2023/05/16 07:04:39;;;;;;;32.13;23.77;;;;;;;39.87;37.84;101215.06;5031010;28;20439;-81
2023/05/16 07:07:08;;;;;;;37.60;25.20;;;;;;;40.00;37.29;101218.81;5030710;28;20208;-82
2023/05/16 07:09:34;;;;;;;32.87;26.87;;;;;;;40.06;37.28;101223.03;5031187;28;20426;-82
2023/05/16 07:12:00;;;;;;;34.87;24.60;;;;;;;40.09;36.95;101221.63;5030651;28;20427;-82
2023/05/16 07:14:26;;;;;;;20.00;18.37;;;;;;;39.98;37.22;101221.84;5031456;28;20427;-81
2023/05/16 07:16:52;;;;;;;26.57;20.77;;;;;;;39.95;37.24;101224.38;5030721;28;20534;-82
2023/05/16 07:19:18;;;;;;;24.43;20.27;;;;;;;40.08;37.15;101222.72;5030815;28;20416;-82
2023/05/16 07:21:44;;;;;;;25.80;19.80;;;;;;;39.91;37.51;101231.56;5030487;28;20454;-81
2023/05/16 07:24:10;;;;;;;23.80;20.00;;;;;;;40.03;37.37;101234.50;5023199;28;20658;-82
2023/05/16 07:26:36;;;;;;;27.17;20.27;;;;;;;40.12;37.19;101229.94;5030533;28;21002;-81
2023/05/16 07:29:03;;;;;;;25.73;18.97;;;;;;;40.08;37.03;101215.34;5030450;28;20451;-82
2023/05/16 07:31:30;;;;;;;30.33;19.07;;;;;;;40.22;36.75;101231.59;5030388;28;20570;-81
2023/05/16 07:33:56;;;;;;;25.83;20.77;;;;;;;40.24;36.88;101240.22;5023661;28;20483;-82
2023/05/16 07:36:22;;;;;;;19.83;17.17;;;;;;;40.15;36.93;101229.31;5024782;28;20559;-81
2023/05/16 07:38:48;;;;;;;26.53;19.53;;;;;;;40.28;36.98;101239.28;5030675;28;20438;-81
2023/05/16 07:41:14;;;;;;;23.13;18.33;;;;;;;40.21;36.98;101233.50;5030120;28;20424;-81
2023/05/16 07:43:39;;;;;;;21.37;17.60;;;;;;;40.33;37.11;101242.97;5030563;28;20617;-83
2023/05/16 07:46:06;;;;;;;22.13;17.37;;;;;;;40.43;37.14;101254.34;5030429;28;20189;-82
2023/05/16 07:48:32;;;;;;;26.27;17.80;;;;;;;40.34;36.84;101248.09;5030620;28;20422;-83
2023/05/16 07:50:58;;;;;;;29.70;19.20;;;;;;;40.49;36.35;101257.78;5030687;28;20432;-83
2023/05/16 07:53:23;;;;;;;25.53;18.50;;;;;;;40.51;37.09;101271.84;5030631;28;20486;-83
2023/05/16 07:55:50;;;;;;;25.00;19.63;;;;;;;40.49;36.31;101257.78;5030358;28;20227;-83
2023/05/16 07:58:16;;;;;;;19.00;14.03;;;;;;;40.54;36.69;101247.56;5030803;28;20860;-83
2023/05/16 08:00:42;;;;;;;18.77;15.67;;;;;;;40.56;36.50;101258.09;5030368;28;20423;-84
2023/05/16 08:03:08;;;;;;;24.00;15.23;;;;;;;40.57;36.86;101254.28;5032020;28;20507;-85
2023/05/16 08:05:34;;;;;;;19.70;14.70;;;;;;;40.55;36.72;101254.59;5034253;28;20522;-85
2023/05/16 08:08:00;;;;;;;21.57;15.00;;;;;;;40.57;36.78;101265.16;5034721;28;20470;-85
2023/05/16 08:10:25;;;;;;;26.50;14.47;;;;;;;40.48;36.67;101267.06;5033944;28;20458;-84
2023/05/16 08:12:52;;;;;;;20.90;15.40;;;;;;;40.44;37.09;101271.47;5034323;28;20218;-85
2023/05/16 08:15:18;;;;;;;21.80;14.53;;;;;;;40.32;37.45;101272.06;5034557;28;20530;-85
2023/05/16 08:17:44;;;;;;;24.27;15.43;;;;;;;40.43;37.07;101267.16;5034492;28;20427;-84
2023/05/16 08:20:11;;;;;;;16.70;13.77;;;;;;;40.61;36.46;101271.56;5034441;28;20442;-85
2023/05/16 08:22:37;;;;;;;22.43;16.60;;;;;;;40.55;36.88;101264.66;5033674;28;20502;-84
2023/05/16 08:25:03;;;;;;;25.97;13.83;;;;;;;40.61;37.04;101271.56;5033828;28;20428;-84
2023/05/16 08:27:29;;;;;;;20.30;15.83;;;;;;;40.63;36.76;101273.97;5034164;28;21012;-85
2023/05/16 08:29:55;;;;;;;25.60;16.13;;;;;;;40.75;36.61;101274.16;5033910;28;20471;-85
2023/05/16 08:32:22;;;;;;;23.23;16.33;;;;;;;40.78;36.56;101281.69;5034168;28;20450;-85
2023/05/16 08:34:48;;;;;;;23.90;15.60;;;;;;;40.69;37.02;101297.97;5020655;28;20428;-84
2023/05/16 08:37:14;;;;;;;24.40;15.43;;;;;;;40.76;36.85;101309.22;5033829;28;20471;-85
2023/05/16 08:39:40;;;;;;;22.00;15.80;;;;;;;40.77;36.68;101302.66;5033882;28;20419;-85
2023/05/16 08:42:06;;;;;;;22.63;15.93;;;;;;;40.86;36.71;101312.75;5033831;28;20434;-85
2023/05/16 08:44:34;;;;;;;30.40;18.17;;;;;;;40.88;37.10;101318.69;5033460;28;20419;-85
2023/05/16 08:47:11;;;;;;;33.07;19.27;;;;;;;40.83;36.80;101325.09;5033622;28;20419;-84
2023/05/16 08:49:40;;;;;;;26.73;17.93;;;;;;;40.88;36.42;101321.41;5033556;28;20430;-84
2023/05/16 08:52:08;;;;;;;18.90;12.50;;;;;;;40.85;36.58;101325.56;5033728;28;20516;-84
2023/05/16 08:54:36;;;;;;;18.97;12.43;;;;;;;40.87;36.61;101328.75;5033383;28;20435;-85
2023/05/16 08:57:03;;;;;;;22.10;14.30;;;;;;;40.97;36.72;101352.19;5033193;28;20960;-85
2023/05/16 08:59:30;;;;;;;20.30;13.07;;;;;;;40.92;36.36;101339.53;5033231;28;20438;-84
2023/05/16 09:01:56;;;;;;;25.87;12.73;;;;;;;40.93;36.96;101345.78;5033939;28;20415;-85
2023/05/16 09:04:24;;;;;;;30.13;13.07;;;;;;;40.85;36.58;101343.81;5033127;28;20427;-85
2023/05/16 09:06:51;;;;;;;20.40;10.70;;;;;;;40.84;36.70;101345.72;5032927;28;20428;-84
2023/05/16 09:09:17;;;;;;;16.63;10.20;;;;;;;40.73;36.79;101338.97;5032968;28;20928;-84
2023/05/16 09:11:43;;;;;;;21.73;9.13;;;;;;;40.81;37.03;101347.13;5033320;28;20453;-83
2023/05/16 09:14:08;;;;;;;21.50;8.53;;;;;;;40.86;37.06;101357.09;5031813;28;20417;-85
2023/05/16 09:16:34;;;;;;;21.43;9.40;;;;;;;40.85;36.93;101357.41;5032311;28;20555;-85
2023/05/16 09:19:01;;;;;;;24.23;9.70;;;;;;;40.94;36.78;101375.38;5034130;28;20318;-83
2023/05/16 09:21:30;;;;;;;17.10;11.47;;;;;;;40.76;37.10;101355.47;5033104;28;20427;-84
2023/05/16 09:24:03;;;;;;;20.37;10.93;;;;;;;40.91;37.16;101365.13;5032885;28;20423;-83
2023/05/16 09:26:30;;;;;;;16.20;8.67;;;;;;;40.92;36.43;101365.94;5033153;28;20530;-83
2023/05/16 09:28:56;;;;;;;14.63;7.90;;;;;;;40.96;36.83;101364.22;5032823;28;20863;-83
2023/05/16 09:31:29;;;;;;;15.10;8.70;;;;;;;40.97;37.06;101357.63;5032418;28;20971;-83
2023/05/16 09:33:55;;;;;;;18.43;10.00;;;;;;;40.99;37.14;101374.44;5013891;28;20428;-83
2023/05/16 09:36:21;;;;;;;22.40;9.60;;;;;;;40.98;36.93;101370.91;5026468;28;20456;-84
2023/05/16 09:38:50;;;;;;;17.63;9.37;;;;;;;41.04;36.89;101368.84;5032537;28;20426;-84
2023/05/16 09:41:16;;;;;;;14.27;7.23;;;;;;;41.08;36.98;101381.53;5032562;28;20939;-84
2023/05/16 09:43:43;;;;;;;15.60;7.40;;;;;;;41.08;36.84;101378.81;5032878;28;20546;-82
2023/05/16 09:46:16;;;;;;;18.50;7.50;;;;;;;41.12;36.97;101376.22;5032119;28;20449;-84
2023/05/16 09:48:50;;;;;;;20.53;9.27;;;;;;;41.09;36.88;101368.72;5032890;28;20419;-81
2023/05/16 09:51:21;;;;;;;14.30;8.70;;;;;;;41.14;36.58;101374.03;5032170;28;20829;-85
2023/05/16 09:53:47;;;;;;;17.00;8.13;;;;;;;41.08;36.67;101361.69;5032769;28;20443;-84
2023/05/16 09:56:14;;;;;;;25.17;7.83;;;;;;;41.20;36.44;101366.50;5032437;28;20490;-77
2023/05/16 09:58:42;;;;;;;18.57;8.53;;;;;;;41.20;36.44;101359.13;5032792;28;20470;-83
2023/05/16 10:01:09;;;;;;;12.50;7.20;;;;;;;41.13;36.38;101357.97;5032421;28;20601;-85
2023/05/16 10:03:37;;;;;;;11.97;6.43;;;;;;;41.11;36.71;101361.03;5032553;28;20419;-84
2023/05/16 10:06:07;;;;;;;20.67;7.67;;;;;;;41.10;36.69;101367.59;5032227;28;20616;-82
2023/05/16 10:08:35;;;;;;;23.50;7.90;;;;;;;41.02;36.98;101369.19;5032310;28;20431;-77
2023/05/16 10:11:05;;;;;;;13.40;5.73;;;;;;;40.91;37.14;101369.78;5032230;28;20423;-81
2023/05/16 10:13:34;;;;;;;18.00;6.33;;;;;;;40.85;36.86;101357.41;5026051;28;20482;-82
2023/05/16 10:16:05;;;;;;;19.00;6.43;;;;;;;40.76;37.55;101360.91;5032131;28;20558;-83
2023/05/16 10:18:32;;;;;;;19.60;5.53;;;;;;;40.75;37.78;101347.59;5032149;28;20431;-83
2023/05/16 10:21:05;;;;;;;16.00;5.37;;;;;;;40.65;37.43;101347.91;5033568;28;20535;-83
2023/05/16 10:23:32;;;;;;;10.23;3.63;;;;;;;40.61;36.82;101345.00;5027944;28;20556;-83
2023/05/16 10:26:02;;;;;;;9.60;4.50;;;;;;;40.66;35.99;101346.78;5031260;28;21026;-83
2023/05/16 10:28:28;;;;;;;17.80;7.27;;;;;;;40.67;36.31;101345.66;5031882;28;20451;-82
2023/05/16 10:30:55;;;;;;;12.33;4.57;;;;;;;40.74;36.40;101344.06;5031199;28;20468;-82
2023/05/16 10:33:21;;;;;;;16.77;6.97;;;;;;;40.69;36.31;101338.78;5031706;28;20446;-85
2023/05/16 10:35:47;;;;;;;14.13;3.87;;;;;;;40.71;36.06;101336.56;5031946;28;20991;-84
2023/05/16 10:38:17;;;;;;;23.00;4.50;;;;;;;40.66;36.79;101339.41;5031675;28;20423;-84
2023/05/16 10:40:44;;;;;;;13.70;5.43;;;;;;;40.65;36.10;101332.38;5031799;28;20526;-85
2023/05/16 10:43:10;;;;;;;8.43;3.20;;;;;;;40.72;36.15;101323.75;5031225;28;20899;-83
2023/05/16 10:45:40;;;;;;;14.27;4.60;;;;;;;40.71;36.57;101325.69;5031469;28;20451;-85
2023/05/16 10:48:08;;;;;;;13.07;3.93;;;;;;;40.69;36.03;101316.22;5032430;28;20259;-85
2023/05/16 10:50:42;;;;;;;21.30;3.67;;;;;;;40.78;35.54;101330.66;5031373;28;21031;-84
2023/05/16 10:53:30;;;;;;;11.20;3.47;;;;;;;40.79;35.83;101327.63;5030985;28;20419;-83
2023/05/16 10:55:58;;;;;;;9.37;3.30;;;;;;;40.85;35.38;101320.13;5031053;28;21076;-84
2023/05/16 10:58:39;;;;;;;9.60;3.93;;;;;;;40.85;35.58;101317.41;5031383;28;20435;-87
2023/05/16 11:01:22;;;;;;;11.80;4.60;;;;;;;40.89;35.75;101302.06;5031379;28;20442;-85
2023/05/16 11:04:02;;;;;;;10.63;3.80;;;;;;;40.94;35.74;101291.03;5030996;28;20454;-85
2023/05/16 11:06:34;;;;;;;14.67;4.50;;;;;;;41.04;35.88;101292.66;5019546;28;20489;-87
2023/05/16 11:09:08;;;;;;;17.10;4.30;;;;;;;41.08;35.70;101296.38;5031494;28;20427;-86
2023/05/16 11:11:50;;;;;;;13.67;4.97;;;;;;;41.14;35.97;101288.84;5031576;28;20955;-86
2023/05/16 11:14:23;;;;;;;10.37;3.40;;;;;;;41.14;35.78;101270.59;5031679;28;20462;-89